createdAt,value
2023-01-25T00:00:55.575Z,3.41
2023-01-25T00:03:58.562Z,3.39
2023-01-25T00:07:00.960Z,3.45
2023-01-25T00:10:03.793Z,3.47
2023-01-25T00:13:06.071Z,3.51
2023-01-25T00:16:08.691Z,3.66
2023-01-25T00:19:11.707Z,3.78
2023-01-25T00:22:14.011Z,3.87
2023-01-25T00:25:16.338Z,3.83
2023-01-25T00:28:18.737Z,3.93
2023-01-25T00:31:27.311Z,4.02
2023-01-25T00:34:39.529Z,3.96
2023-01-25T00:37:49.970Z,3.81
2023-01-25T00:40:53.438Z,3.83
2023-01-25T00:43:55.754Z,3.74
2023-01-25T00:46:58.017Z,3.74
2023-01-25T00:50:00.299Z,3.57
2023-01-25T00:53:02.649Z,3.49
2023-01-25T00:56:05.449Z,3.35
2023-01-25T00:59:07.910Z,3.31
2023-01-25T01:02:11.952Z,3.47
2023-01-25T01:05:14.405Z,3.40
2023-01-25T01:08:16.817Z,3.27
2023-01-25T01:11:20.495Z,3.25
2023-01-25T01:14:23.901Z,3.27
2023-01-25T01:17:26.237Z,3.37
2023-01-25T01:20:28.738Z,3.35
2023-01-25T01:23:31.873Z,3.36
2023-01-25T01:26:34.201Z,3.25
2023-01-25T01:29:37.224Z,3.08
2023-01-25T01:32:39.700Z,3.09
2023-01-25T01:35:42.071Z,3.04
2023-01-25T01:38:44.820Z,3.08
2023-01-25T01:41:47.165Z,3.13
2023-01-25T01:44:54.539Z,3.02
2023-01-25T01:47:58.781Z,2.99
2023-01-25T01:51:04.307Z,3.05
2023-01-25T01:54:36.781Z,3.02
2023-01-25T01:57:46.740Z,3.09
2023-01-25T02:00:49.265Z,3.00
2023-01-25T02:03:52.071Z,2.99
2023-01-25T02:07:06.155Z,2.99
2023-01-25T02:10:11.940Z,3.02
2023-01-25T02:13:17.844Z,2.85
2023-01-25T02:16:24.370Z,2.92
2023-01-25T02:19:59.119Z,2.86
2023-01-25T02:23:29.306Z,2.89
2023-01-25T02:26:32.009Z,2.76
2023-01-25T02:29:34.900Z,2.73
2023-01-25T02:32:37.596Z,2.75
2023-01-25T02:35:51.513Z,2.71
2023-01-25T02:39:17.377Z,3.01
2023-01-25T02:42:21.487Z,2.95
2023-01-25T02:45:25.741Z,2.91
2023-01-25T02:48:28.326Z,2.97
2023-01-25T02:51:32.853Z,2.88
2023-01-25T02:54:35.170Z,2.79
2023-01-25T02:57:41.208Z,2.80
2023-01-25T03:00:43.668Z,2.75
2023-01-25T03:03:46.058Z,2.85
2023-01-25T03:06:48.579Z,2.87
2023-01-25T03:09:52.329Z,2.70
2023-01-25T03:12:54.844Z,2.79
2023-01-25T03:16:04.162Z,2.91
2023-01-25T03:19:06.546Z,2.82
2023-01-25T03:22:09.745Z,2.68
2023-01-25T03:25:12.492Z,2.76
2023-01-25T03:28:23.485Z,2.74
2023-01-25T03:31:26.202Z,2.82
2023-01-25T03:34:28.621Z,2.71
2023-01-25T03:37:34.268Z,2.92
2023-01-25T03:40:36.665Z,2.90
2023-01-25T03:43:39.705Z,2.96
2023-01-25T03:46:42.404Z,2.94
2023-01-25T03:49:44.754Z,2.97
2023-01-25T03:52:59.431Z,2.98
2023-01-25T03:56:09.315Z,2.91
2023-01-25T03:59:12.571Z,2.94
2023-01-25T04:02:15.186Z,2.93
2023-01-25T04:05:18.838Z,2.99
2023-01-25T04:08:22.009Z,3.01
2023-01-25T04:11:24.684Z,2.76
2023-01-25T04:14:43.414Z,2.84
2023-01-25T04:17:48.489Z,2.86
2023-01-25T04:20:59.163Z,3.02
2023-01-25T04:24:01.848Z,3.03
2023-01-25T04:27:06.070Z,3.17
2023-01-25T04:30:14.616Z,3.15
2023-01-25T04:33:19.104Z,3.09
2023-01-25T04:36:22.107Z,3.15
2023-01-25T04:39:24.495Z,3.23
2023-01-25T04:42:27.586Z,3.46
2023-01-25T04:45:32.605Z,3.42
2023-01-25T04:48:37.887Z,3.46
2023-01-25T04:51:42.367Z,3.61
2023-01-25T04:54:44.657Z,3.63
2023-01-25T04:57:51.422Z,3.56
2023-01-25T05:00:54.091Z,3.63
2023-01-25T05:03:57.791Z,3.54
2023-01-25T05:07:14.182Z,3.72
2023-01-25T05:10:17.151Z,3.56
2023-01-25T05:13:39.387Z,3.53
2023-01-25T05:17:08.755Z,3.51
2023-01-25T05:20:12.180Z,3.67
2023-01-25T05:23:17.548Z,3.79
2023-01-25T05:26:38.765Z,3.70
2023-01-25T05:29:44.387Z,3.71
2023-01-25T05:32:50.557Z,3.76
2023-01-25T05:35:53.942Z,3.81
2023-01-25T05:38:59.685Z,3.85
2023-01-25T05:42:03.813Z,3.83
2023-01-25T05:45:07.358Z,3.90
2023-01-25T05:48:11.362Z,4.01
2023-01-25T05:51:13.734Z,4.01
2023-01-25T05:54:19.518Z,4.10
2023-01-25T05:57:30.206Z,4.18
2023-01-25T06:00:38.719Z,4.23
2023-01-25T06:03:41.245Z,4.41
2023-01-25T06:06:43.869Z,4.48
2023-01-25T06:09:46.177Z,4.53
2023-01-25T06:12:48.485Z,4.40
2023-01-25T06:15:57.568Z,4.54
2023-01-25T06:19:22.815Z,4.47
2023-01-25T06:22:43.770Z,4.31
2023-01-25T06:25:49.897Z,4.18
2023-01-25T06:29:07.016Z,4.43
2023-01-25T06:32:09.466Z,4.25
2023-01-25T06:35:12.814Z,4.54
2023-01-25T06:38:17.973Z,4.45
2023-01-25T06:41:21.297Z,4.61
2023-01-25T06:44:23.765Z,4.49
2023-01-25T06:47:26.110Z,4.59
2023-01-25T06:50:28.600Z,4.46
2023-01-25T06:53:33.527Z,4.35
2023-01-25T06:56:35.986Z,4.36
2023-01-25T06:59:38.452Z,4.40
2023-01-25T07:02:43.958Z,4.36
2023-01-25T07:05:46.601Z,4.47
2023-01-25T07:08:49.567Z,4.34
2023-01-25T07:11:52.876Z,4.51
2023-01-25T07:20:13.056Z,4.70
2023-01-25T07:23:15.511Z,4.64
2023-01-25T07:26:24.010Z,4.69
2023-01-25T07:29:26.423Z,4.95
2023-01-25T07:32:29.287Z,4.98
2023-01-25T07:35:32.636Z,4.97
2023-01-25T07:38:36.189Z,4.89
2023-01-25T07:41:39.199Z,4.80
2023-01-25T07:44:41.714Z,4.75
2023-01-25T07:47:47.940Z,4.75
2023-01-25T07:50:50.302Z,4.75
2023-01-25T07:53:57.681Z,4.89
2023-01-25T07:57:00.049Z,4.83
2023-01-25T08:00:03.139Z,4.63
2023-01-25T08:03:15.656Z,4.76
2023-01-25T08:06:18.439Z,4.76
2023-01-25T08:09:21.184Z,4.76
2023-01-25T08:12:23.689Z,4.64
2023-01-25T08:15:26.059Z,4.61
2023-01-25T08:18:28.644Z,4.59
2023-01-25T08:21:33.441Z,4.61
2023-01-25T08:24:35.916Z,4.79
2023-01-25T08:27:38.331Z,4.76
2023-01-25T08:30:52.017Z,4.99
2023-01-25T08:33:59.260Z,5.11
2023-01-25T08:37:01.746Z,5.06
2023-01-25T08:40:04.416Z,5.06
2023-01-25T08:43:06.883Z,4.83
2023-01-25T08:46:09.808Z,4.98
2023-01-25T08:49:12.157Z,5.29
2023-01-25T08:52:15.087Z,5.19
2023-01-25T08:55:17.472Z,5.09
2023-01-25T08:58:22.109Z,5.05
2023-01-25T09:01:24.600Z,5.12
2023-01-25T09:04:28.565Z,5.11
2023-01-25T09:07:32.643Z,5.09
2023-01-25T09:10:35.044Z,5.21
2023-01-25T09:13:37.757Z,5.24
2023-01-25T09:16:40.117Z,5.14
2023-01-25T09:19:42.618Z,5.09
2023-01-25T09:22:45.022Z,5.13
2023-01-25T09:25:47.468Z,5.15
2023-01-25T09:28:51.783Z,5.09
2023-01-25T09:31:54.475Z,5.08
2023-01-25T09:35:12.726Z,5.17
2023-01-25T09:38:15.488Z,5.02
2023-01-25T09:42:15.757Z,5.25
2023-01-25T09:45:26.831Z,5.37
2023-01-25T09:48:34.530Z,5.16
2023-01-25T09:52:05.021Z,5.29
2023-01-25T09:55:15.013Z,5.45
2023-01-25T09:58:23.437Z,5.52
2023-01-25T10:01:38.908Z,5.49
2023-01-25T10:04:43.396Z,5.40
2023-01-25T10:07:57.282Z,5.44
2023-01-25T10:11:08.981Z,5.51
2023-01-25T10:14:17.124Z,5.54
2023-01-25T10:17:33.900Z,5.58
2023-01-25T10:20:49.754Z,5.49
2023-01-25T10:24:20.296Z,5.44
2023-01-25T10:27:33.472Z,5.43
2023-01-25T10:31:08.074Z,5.40
2023-01-25T10:34:29.848Z,5.42
2023-01-25T10:37:34.514Z,5.45
2023-01-25T10:40:43.596Z,5.32
2023-01-25T10:43:46.144Z,5.45
2023-01-25T10:47:01.156Z,5.35
2023-01-25T10:50:03.721Z,5.34
2023-01-25T10:53:09.944Z,5.32
2023-01-25T10:56:20.039Z,5.66
2023-01-25T10:59:27.326Z,5.61
2023-01-25T11:02:35.879Z,5.72
2023-01-25T11:06:24.094Z,5.68
2023-01-25T11:09:38.526Z,5.90
2023-01-25T11:12:40.832Z,5.92
2023-01-25T11:15:45.018Z,5.78
2023-01-25T11:18:54.348Z,5.71
2023-01-25T11:22:02.100Z,5.69
2023-01-25T11:25:31.132Z,5.88
2023-01-25T11:28:33.458Z,5.86
2023-01-25T11:31:36.100Z,5.89
2023-01-25T11:34:38.481Z,6.01
2023-01-25T11:38:20.644Z,6.10
2023-01-25T11:41:46.462Z,5.89
2023-01-25T11:44:56.259Z,6.02
2023-01-25T11:48:21.475Z,5.97
2023-01-25T11:51:28.032Z,5.99
2023-01-25T11:54:45.878Z,6.01
2023-01-25T11:58:15.775Z,6.11
2023-01-25T12:01:23.533Z,6.13
2023-01-25T12:04:36.638Z,6.08
2023-01-25T12:07:57.599Z,5.91
2023-01-25T12:11:31.826Z,5.98
2023-01-25T12:15:11.749Z,5.94
2023-01-25T12:18:41.659Z,5.85
2023-01-25T12:21:55.469Z,5.87
2023-01-25T12:25:03.316Z,5.79
2023-01-25T12:28:28.177Z,5.83
2023-01-25T12:31:48.131Z,5.52
2023-01-25T12:35:59.398Z,5.44
2023-01-25T12:45:13.258Z,5.83
2023-01-25T12:52:44.083Z,5.95
2023-01-25T12:55:48.866Z,6.27
2023-01-25T12:58:57.080Z,6.22
2023-01-25T13:02:08.689Z,6.13
2023-01-25T13:05:37.701Z,5.94
2023-01-25T13:09:01.797Z,5.90
2023-01-25T13:12:04.751Z,5.81
2023-01-25T13:15:37.189Z,6.03
2023-01-25T13:18:40.122Z,5.98
2023-01-25T13:21:48.139Z,5.89
2023-01-25T13:25:03.049Z,6.18
2023-01-25T13:28:39.562Z,6.21
2023-01-25T13:31:51.980Z,6.24
2023-01-25T13:34:55.398Z,6.23
2023-01-25T13:38:29.306Z,6.06
2023-01-25T13:41:33.363Z,5.87
2023-01-25T13:44:41.990Z,5.98
2023-01-25T13:47:45.731Z,5.97
2023-01-25T13:51:10.278Z,6.05
2023-01-25T13:54:16.319Z,5.80
2023-01-25T13:57:27.448Z,5.69
2023-01-25T14:00:29.821Z,5.86
2023-01-25T14:03:44.405Z,6.01
2023-01-25T14:06:46.742Z,5.99
2023-01-25T14:09:49.603Z,5.94
2023-01-25T14:12:53.564Z,5.92
2023-01-25T14:16:04.543Z,5.80
2023-01-25T14:19:29.837Z,5.73
2023-01-25T14:22:33.987Z,5.62
2023-01-25T14:25:40.759Z,5.53
2023-01-25T14:28:59.426Z,5.67
2023-01-25T14:32:07.502Z,5.69
2023-01-25T14:36:05.785Z,5.86
2023-01-25T14:39:27.947Z,5.77
2023-01-25T14:42:31.439Z,5.65
2023-01-25T14:45:33.823Z,5.74
2023-01-25T14:48:40.889Z,5.95
2023-01-25T14:51:49.667Z,5.88
2023-01-25T14:55:01.562Z,5.87
2023-01-25T14:58:04.116Z,5.68
2023-01-25T15:01:13.046Z,5.53
2023-01-25T15:04:20.248Z,5.41
2023-01-25T15:07:52.164Z,5.53
2023-01-25T15:11:19.625Z,5.45
2023-01-25T15:14:22.533Z,5.73
2023-01-25T15:17:41.951Z,5.98
2023-01-25T15:20:45.227Z,5.74
2023-01-25T15:23:50.347Z,5.72
2023-01-25T15:26:53.862Z,5.73
2023-01-25T15:30:00.833Z,5.63
2023-01-25T15:33:03.235Z,5.58
2023-01-25T15:36:05.710Z,5.46
2023-01-25T15:39:13.674Z,5.43
2023-01-25T15:42:16.367Z,5.42
2023-01-25T15:45:24.860Z,5.23
2023-01-25T15:48:35.345Z,5.20
2023-01-25T15:51:39.992Z,5.37
2023-01-25T15:54:52.205Z,5.22
2023-01-25T15:58:14.131Z,5.03
2023-01-25T16:01:24.388Z,5.12
2023-01-25T16:04:26.771Z,5.03
2023-01-25T16:07:30.929Z,5.31
2023-01-25T16:10:33.430Z,5.53
2023-01-25T16:13:44.551Z,5.49
2023-01-25T16:16:49.471Z,5.33
2023-01-25T16:20:02.716Z,5.46
2023-01-25T16:23:13.912Z,5.46
2023-01-25T16:26:27.023Z,5.73
2023-01-25T16:29:30.206Z,5.59
2023-01-25T16:32:32.889Z,5.45
2023-01-25T16:35:35.302Z,5.31
2023-01-25T16:38:37.634Z,5.43
2023-01-25T16:41:48.477Z,5.41
2023-01-25T16:44:50.888Z,5.25
2023-01-25T16:47:53.560Z,5.11
2023-01-25T16:50:56.211Z,5.06
2023-01-25T16:53:58.656Z,4.96
2023-01-25T16:57:08.657Z,5.15
2023-01-25T17:00:21.505Z,4.95
2023-01-25T17:03:24.375Z,4.93
2023-01-25T17:06:31.783Z,4.93
2023-01-25T17:09:34.405Z,4.98
2023-01-25T17:12:37.051Z,5.01
2023-01-25T17:15:39.358Z,4.96
2023-01-25T17:18:41.646Z,5.05
2023-01-25T17:21:44.675Z,5.03
2023-01-25T17:24:46.950Z,5.03
2023-01-25T17:27:49.226Z,5.06
2023-01-25T17:30:54.300Z,5.05
2023-01-25T17:33:57.786Z,5.11
2023-01-25T17:37:00.152Z,5.05
2023-01-25T17:40:02.529Z,5.03
2023-01-25T17:43:04.919Z,5.07
2023-01-25T17:46:26.230Z,5.10
2023-01-25T17:49:30.597Z,5.25
2023-01-25T17:52:33.422Z,5.27
2023-01-25T17:55:37.505Z,5.14
2023-01-25T17:58:40.913Z,4.86
2023-01-25T18:01:43.554Z,4.94
2023-01-25T18:04:45.877Z,4.87
2023-01-25T18:07:48.191Z,4.77
2023-01-25T18:10:50.535Z,4.77
2023-01-25T18:13:58.432Z,4.58
2023-01-25T18:17:01.241Z,4.62
2023-01-25T18:20:05.536Z,4.63
2023-01-25T18:23:07.826Z,4.74
2023-01-25T18:26:40.928Z,4.76
2023-01-25T18:30:05.328Z,4.66
2023-01-25T18:33:07.657Z,4.70
2023-01-25T18:36:17.344Z,4.85
2023-01-25T18:39:19.623Z,4.85
2023-01-25T18:42:24.111Z,4.92
2023-01-25T18:45:26.532Z,4.85
2023-01-25T18:48:32.181Z,4.86
2023-01-25T18:51:38.972Z,4.87
2023-01-25T18:54:47.123Z,4.89
2023-01-25T18:57:49.487Z,4.81
2023-01-25T19:01:01.657Z,4.77
2023-01-25T19:04:04.314Z,4.75
2023-01-25T19:07:07.027Z,4.84
2023-01-25T19:10:10.405Z,4.92
2023-01-25T19:13:12.718Z,5.02
2023-01-25T19:16:20.367Z,4.95
2023-01-25T19:19:23.664Z,4.97
2023-01-25T19:22:26.170Z,4.88
2023-01-25T19:25:30.654Z,4.91
2023-01-25T19:28:34.903Z,4.95
2023-01-25T19:31:37.466Z,4.94
2023-01-25T19:34:39.961Z,4.88
2023-01-25T19:37:42.393Z,4.85
2023-01-25T19:40:44.639Z,4.86
2023-01-25T19:43:47.685Z,4.88
2023-01-25T19:46:50.139Z,4.91
2023-01-25T19:49:52.440Z,4.87
2023-01-25T19:52:55.438Z,4.91
2023-01-25T19:56:01.793Z,4.80
2023-01-25T19:59:05.920Z,4.85
2023-01-25T20:02:10.889Z,4.84
2023-01-25T20:05:13.266Z,4.90
2023-01-25T20:08:15.515Z,4.93
2023-01-25T20:11:28.950Z,4.96
2023-01-25T20:14:31.325Z,5.01
2023-01-25T20:17:36.654Z,4.96
2023-01-25T20:20:38.952Z,4.98
2023-01-25T20:23:43.258Z,4.91
2023-01-25T20:26:45.718Z,4.93
2023-01-25T20:29:49.174Z,4.86
2023-01-25T20:32:51.416Z,4.88
2023-01-25T20:35:55.306Z,4.95
2023-01-25T20:38:58.035Z,4.94
2023-01-25T20:42:00.390Z,4.94
2023-01-25T20:45:02.747Z,4.93
2023-01-25T20:48:05.404Z,4.89
2023-01-25T20:51:13.105Z,4.93
2023-01-25T20:54:16.028Z,4.97
2023-01-25T20:57:18.313Z,5.07
2023-01-25T21:00:21.053Z,5.05
2023-01-25T21:03:24.489Z,4.98
2023-01-25T21:06:27.762Z,4.99
2023-01-25T21:09:30.028Z,4.83
2023-01-25T21:12:33.512Z,4.77
2023-01-25T21:15:35.869Z,4.85
2023-01-25T21:18:40.055Z,4.80
2023-01-25T21:21:42.402Z,4.76
2023-01-25T21:24:44.724Z,4.74
2023-01-25T21:27:47.036Z,4.79
2023-01-25T21:30:49.366Z,4.88
2023-01-25T21:33:51.979Z,4.73
2023-01-25T21:36:54.577Z,4.73
2023-01-25T21:39:56.896Z,4.77
2023-01-25T21:42:59.212Z,4.61
2023-01-25T21:46:13.637Z,4.74
2023-01-25T21:49:34.634Z,4.66
2023-01-25T21:52:37.031Z,4.73
2023-01-25T21:55:39.808Z,4.73
2023-01-25T21:58:42.124Z,4.61
2023-01-25T22:01:45.137Z,4.68
2023-01-25T22:04:47.436Z,4.67
2023-01-25T22:07:49.656Z,4.64
2023-01-25T22:10:51.944Z,4.55
2023-01-25T22:13:54.964Z,4.73
2023-01-25T22:17:01.487Z,4.69
2023-01-25T22:20:04.281Z,4.72
2023-01-25T22:23:06.580Z,4.70
2023-01-25T22:26:16.975Z,4.75
2023-01-25T22:29:19.462Z,4.78
2023-01-25T22:32:21.844Z,4.69
2023-01-25T22:35:24.220Z,4.66
2023-01-25T22:38:26.650Z,4.67
2023-01-25T22:41:33.052Z,4.63
2023-01-25T22:44:35.421Z,4.61
2023-01-25T22:47:37.759Z,4.58
2023-01-25T22:50:40.151Z,4.65
2023-01-25T22:53:42.993Z,4.71
2023-01-25T22:56:45.265Z,4.66
2023-01-25T22:59:47.592Z,4.69
2023-01-25T23:02:49.822Z,4.70
2023-01-25T23:06:02.697Z,4.68
2023-01-25T23:09:06.583Z,4.66
2023-01-25T23:12:08.947Z,4.63
2023-01-25T23:15:15.613Z,4.64
2023-01-25T23:18:36.646Z,4.61
2023-01-25T23:21:39.060Z,4.56
2023-01-25T23:24:41.407Z,4.61
2023-01-25T23:27:43.797Z,4.71
2023-01-25T23:30:46.169Z,4.66
2023-01-25T23:33:51.046Z,4.64
2023-01-25T23:36:53.337Z,4.57
2023-01-25T23:39:55.852Z,4.56
2023-01-25T23:42:58.163Z,4.64
2023-01-25T23:46:00.506Z,4.57
2023-01-25T23:49:02.860Z,4.55
2023-01-25T23:52:05.253Z,4.59
2023-01-25T23:55:08.056Z,4.62
2023-01-25T23:58:10.292Z,4.57
